• Join FlightAware (Why Join?)
  • Login
  • US Flag 
01:41PM EDT


 

Airport Tracker/Info


-or-


 

Live Flight TrackerFlight Track Log ✈ CHQ3061 ✈ 17-Apr-2012 ✈ KDCA - KSDF

Flight Track Log - Related Links

Times and Time Zones

All times are in EDT time to prevent confusion due to time zone crossing. See the CHQ3061 flight status page for this flight to view local times or setup timezone preferences in your user account.

Time Position Orientation Groundspeed Altitude Reporting Facility
EDT Latitude Longitude Course Direction KTS MPH feet Rate Location/Type
08:12AM 38.8492 -77.0706 25° Northeast  Level FlightAware Approximate
08:13AM 38.8833 -77.0500 311° West 153 176 1,900  Level Potomac TRACON
08:14AM 38.9167 -77.1000 311° West 221 254 4,600 2,640 Climbing Potomac TRACON
08:15AM 38.9500 -77.1500 311° West 208 239 7,200 2,760 Climbing Potomac TRACON
08:16AM 38.9833 -77.2000 284° West 201 231 9,900 1,920 Climbing Potomac TRACON
08:17AM 39.0000 -77.2833 262° West 251 289 10,900 1,140 Climbing Potomac TRACON
08:19AM 38.9753 -77.5033 268° West 313 360 13,600 1,680 Climbing Washington Center
08:20AM 38.9711 -77.6261 279° West 319 367 16,400 1,740 Climbing Washington Center
08:21AM 38.9839 -77.7333 252° West 316 364 17,100 720 Climbing Washington Center
08:22AM 38.9569 -77.8392 252° West 328 377 17,900 780 Climbing Washington Center
08:23AM 38.9233 -77.9717 253° West 342 394 18,700 840 Climbing Washington Center
08:24AM 38.8936 -78.0933 252° West 353 406 19,700 960 Climbing Washington Center
08:25AM 38.8619 -78.2150 268° West 363 418 20,700 960 Climbing Washington Center
08:26AM 38.8589 -78.3481 267° West 363 418 21,700 960 Climbing Washington Center
08:27AM 38.8536 -78.4811 268° West 368 423 22,700 840 Climbing Washington Center
08:28AM 38.8506 -78.6064 268° West 382 440 23,500 900 Climbing Washington Center
08:29AM 38.8469 -78.7450 268° West 382 440 24,500 900 Climbing Washington Center
08:30AM 38.8433 -78.8806 268° West 382 440 25,300 840 Climbing Washington Center
08:31AM 38.8397 -79.0164 268° West 382 440 26,200 840 Climbing Washington Center
08:32AM 38.8356 -79.1547 252° West 382 440 27,100 960 Climbing Washington Center
08:33AM 38.8047 -79.2758 231° Southwest 382 440 28,200 900 Climbing Washington Center
08:34AM 38.7347 -79.3869 231° Southwest 358 412 29,000 660 Climbing Washington Center
08:35AM 38.6711 -79.4872 256° West 364 419 29,600 600 Climbing Washington Center
08:36AM 38.6483 -79.6083 255° West 369 425 30,300 660 Climbing Washington Center
08:37AM 38.6208 -79.7425 255° West 383 441 31,000 660 Climbing Washington Center
08:38AM 38.5931 -79.8789 256° West 391 450 31,700 480 Climbing Washington Center
08:39AM 38.5647 -80.0286 256° West 402 463 32,000 60 Climbing Washington Center
08:41AM 38.5164 -80.2736 255° West 417 480 32,000  Level Indianapolis Center
08:42AM 38.4889 -80.4075 254° West 412 474 32,000  Level Indianapolis Center
08:43AM 38.4608 -80.5361 256° West 399 459 32,000 -600 Level Indianapolis Center
08:44AM 38.4350 -80.6697 257° West 393 452 30,900 -1,380 Descending Indianapolis Center
08:45AM 38.4092 -80.8111 262° West 400 460 29,300 -1,500 Descending Indianapolis Center
08:46AM 38.3939 -80.9550 270° West 405 466 28,000 -660 Descending Indianapolis Center
08:47AM 38.3947 -81.1006 270° West 410 472 28,000  Level Indianapolis Center
08:48AM 38.3936 -81.2492 269° West 420 483 28,000  Level Indianapolis Center
08:49AM 38.3922 -81.3975 269° West 420 483 28,000  Level Indianapolis Center
08:50AM 38.3906 -81.5433 270° West 420 483 28,000  Level Indianapolis Center
08:51AM 38.3908 -81.6731 270° West 420 483 28,000  Level Indianapolis Center
08:52AM 38.3908 -81.8189 269° West 420 483 28,000  Level Indianapolis Center
08:53AM 38.3889 -81.9647 270° West 415 478 28,000  Level Indianapolis Center
08:54AM 38.3886 -82.1078 270° West 415 478 28,000  Level Indianapolis Center
08:55AM 38.3883 -82.2561 271° West 420 483 28,000  Level Indianapolis Center
08:56AM 38.3897 -82.4017 270° West 420 483 28,000  Level Indianapolis Center
08:57AM 38.3892 -82.5633 269° West 420 483 28,000  Level Indianapolis Center
08:58AM 38.3881 -82.7064 269° West 412 474 28,000  Level Indianapolis Center
08:59AM 38.3869 -82.8469 270° West 405 466 28,000  Level Indianapolis Center
09:00AM 38.3878 -82.9872 269° West 400 460 28,000  Level Indianapolis Center
09:01AM 38.3864 -83.1278 267° West 400 460 28,000 -780 Level Indianapolis Center
09:02AM 38.3806 -83.2683 267° West 400 460 26,500 -1,500 Descending Indianapolis Center
09:03AM 38.3744 -83.4061 266° West 400 460 25,000 -1,260 Descending Indianapolis Center
09:04AM 38.3661 -83.5464 268° West 400 460 24,000 -540 Descending Indianapolis Center
09:05AM 38.3619 -83.6814 267° West 400 460 24,000 -120 Level Indianapolis Center
09:06AM 38.3575 -83.8086 268° West 385 443 23,800 -900 Descending Indianapolis Center
09:07AM 38.3531 -83.9411 267° West 380 437 22,300 -1,500 Descending Indianapolis Center
09:08AM 38.3483 -84.0761 270° West 380 437 20,800 -1,200 Descending Indianapolis Center
09:09AM 38.3478 -84.2111 268° West 386 444 20,000 -420 Descending Indianapolis Center
09:10AM 38.3447 -84.3408 270° West 380 437 20,000 -60 Level Indianapolis Center
09:11AM 38.3439 -84.4678 268° West 374 430 19,900 -960 Descending Indianapolis Center
09:12AM 38.3408 -84.5922 265° West 361 415 18,100 -1,740 Descending Indianapolis Center
09:13AM 38.3311 -84.7244 265° West 361 415 16,500 -2,100 Descending Indianapolis Center
09:14AM 38.3239 -84.8383 264° West 353 406 14,000 -2,400 Descending Indianapolis Center
09:15AM 38.3142 -84.9572 275° West 345 397 11,700 -1,500 Descending Indianapolis Center
09:16AM 38.3211 -85.0686 275° West 339 390 11,000 -540 Descending Indianapolis Center
09:17AM 38.3300 -85.1878 280° West 339 390 10,700 -720 Descending Indianapolis Center
09:18AM 38.3431 -85.2836 274° West 312 359 9,600 -1,380 Descending Indianapolis Center
09:19AM 38.3483 -85.3828 287° West 244 281 7,700 -1,440 Descending FAA TRACON SMA TRACON (SMA)
09:19AM 38.3608 -85.4344 295° West 225 259 7,000 -1,140 Descending FAA TRACON SMA TRACON (SMA)
09:20AM 38.3781 -85.4822 296° West 211 243 6,200 -840 Descending FAA TRACON SMA TRACON (SMA)
09:21AM 38.3942 -85.5236 298° West 212 244 5,900 -240 Descending FAA TRACON SMA TRACON (SMA)
09:22AM 38.4133 -85.5689 298° West 209 241 5,900  Level FAA TRACON SMA TRACON (SMA)
09:22AM 38.4300 -85.6086 295° West 183 211 5,900 -540 Level FAA TRACON SMA TRACON (SMA)
09:23AM 38.4431 -85.6436 265° West 179 206 5,200 -1,320 Descending FAA TRACON SMA TRACON (SMA)
09:23AM 38.4397 -85.6897 260° West 191 220 4,200 -1,020 Descending FAA TRACON SMA TRACON (SMA)
09:24AM 38.4336 -85.7361 234° Southwest 191 220 3,900 -240 Descending FAA TRACON SMA TRACON (SMA)
09:25AM 38.4136 -85.7714 212° Southwest 193 222 3,900  Level FAA TRACON SMA TRACON (SMA)
09:26AM 38.3800 -85.7978 166° South 211 243 3,900 -120 Level FAA TRACON SMA TRACON (SMA)
09:26AM 38.3464 -85.7872 160° South 203 234 3,800 -360 Descending FAA TRACON SMA TRACON (SMA)
09:27AM 38.3153 -85.7731 160° South 194 223 3,500 -480 Descending FAA TRACON SMA TRACON (SMA)